EJU06MA LFKB-LFML
Flight info
| Callsign | EJU06MA |
|---|---|
| Flight time | 0h 41m |
| Altitude | 30000 |
| Route | SODRI A3 OMARD DCT STP/N0334F180 A3 RUBIT G7 LANKO |
| Aircraft | A320/M-SDE3FGHIRWY/LB1 |
Departure
| Time | 2026-05-06 12:17 |
|---|---|
| Airport | Bastia-Poretta International airport (LFKB) |
Arrival
| Time | 2026-05-06 12:58 |
|---|---|
| Airport | Marseille Provence Airport (LFML) |
| Time | Latitude | Longitude | Altitude | Speed | Heading |
|---|---|---|---|---|---|
| 2026-05-06 11:56 | 42.54737 | 9.48202 | 31 ft | 0 kts | 282° |
| 2026-05-06 12:08 | 42.54735 | 9.48215 | 30 ft | 2 kts | 282° |
| 2026-05-06 12:08 | 42.54733 | 9.48226 | 29 ft | 4 kts | 281° |
| 2026-05-06 12:09 | 42.54728 | 9.48262 | 30 ft | 4 kts | 277° |
| 2026-05-06 12:09 | 42.54726 | 9.48299 | 31 ft | 4 kts | 269° |
| 2026-05-06 12:09 | 42.54729 | 9.48332 | 31 ft | 2 kts | 252° |
| 2026-05-06 12:09 | 42.54730 | 9.48339 | 30 ft | 0 kts | 252° |
| 2026-05-06 12:12 | 42.54726 | 9.48331 | 31 ft | 4 kts | 230° |
| 2026-05-06 12:12 | 42.54648 | 9.48355 | 32 ft | 19 kts | 167° |
| 2026-05-06 12:12 | 42.54520 | 9.48411 | 32 ft | 18 kts | 161° |
| 2026-05-06 12:12 | 42.54403 | 9.48415 | 33 ft | 16 kts | 170° |
| 2026-05-06 12:13 | 42.54302 | 9.48458 | 34 ft | 15 kts | 162° |
| 2026-05-06 12:13 | 42.54196 | 9.48499 | 34 ft | 18 kts | 161° |
| 2026-05-06 12:13 | 42.54128 | 9.48619 | 35 ft | 16 kts | 102° |
| 2026-05-06 12:13 | 42.54138 | 9.48713 | 34 ft | 0 kts | 63° |
| 2026-05-06 12:14 | 42.54140 | 9.48717 | 34 ft | 3 kts | 63° |
| 2026-05-06 12:14 | 42.54169 | 9.48769 | 35 ft | 11 kts | 41° |
| 2026-05-06 12:14 | 42.54263 | 9.48793 | 34 ft | 16 kts | 343° |
| 2026-05-06 12:14 | 42.54292 | 9.48780 | 34 ft | 0 kts | 342° |
| 2026-05-06 12:16 | 42.54344 | 9.48757 | 34 ft | 34 kts | 342° |
| 2026-05-06 12:16 | 42.54834 | 9.48555 | 30 ft | 109 kts | 342° |
| 2026-05-06 12:17 | 42.55741 | 9.48171 | 91 ft | 158 kts | 343° |
| 2026-05-06 12:17 | 42.56811 | 9.47758 | 814 ft | 164 kts | 346° |
| 2026-05-06 12:17 | 42.58000 | 9.47436 | 1379 ft | 184 kts | 353° |
| 2026-05-06 12:17 | 42.59352 | 9.47326 | 1818 ft | 207 kts | 360° |
| 2026-05-06 12:18 | 42.60875 | 9.47482 | 2315 ft | 233 kts | 7° |
| 2026-05-06 12:18 | 42.62541 | 9.47986 | 2911 ft | 257 kts | 16° |
| 2026-05-06 12:18 | 42.64258 | 9.48829 | 3453 ft | 265 kts | 20° |
| 2026-05-06 12:18 | 42.65998 | 9.49729 | 4123 ft | 271 kts | 20° |
| 2026-05-06 12:19 | 42.67787 | 9.50645 | 4892 ft | 278 kts | 17° |
| 2026-05-06 12:19 | 42.69694 | 9.50986 | 5649 ft | 279 kts | 352° |
| 2026-05-06 12:19 | 42.71516 | 9.50152 | 6416 ft | 278 kts | 323° |
| 2026-05-06 12:19 | 42.72864 | 9.48320 | 7358 ft | 274 kts | 298° |
| 2026-05-06 12:20 | 42.73616 | 9.45962 | 8369 ft | 272 kts | 286° |
| 2026-05-06 12:20 | 42.74246 | 9.43553 | 9362 ft | 275 kts | 285° |
| 2026-05-06 12:20 | 42.74886 | 9.41085 | 10212 ft | 284 kts | 285° |
| 2026-05-06 12:20 | 42.75562 | 9.38445 | 10633 ft | 305 kts | 285° |
| 2026-05-06 12:21 | 42.76273 | 9.35668 | 11375 ft | 314 kts | 285° |
| 2026-05-06 12:21 | 42.77001 | 9.32850 | 12264 ft | 318 kts | 285° |
| 2026-05-06 12:21 | 42.77739 | 9.29999 | 13157 ft | 321 kts | 285° |
| 2026-05-06 12:21 | 42.78486 | 9.27110 | 13992 ft | 325 kts | 285° |
| 2026-05-06 12:22 | 42.79239 | 9.24198 | 14755 ft | 328 kts | 285° |
| 2026-05-06 12:22 | 42.80001 | 9.21253 | 15505 ft | 331 kts | 285° |
| 2026-05-06 12:22 | 42.80769 | 9.18279 | 16249 ft | 335 kts | 284° |
| 2026-05-06 12:22 | 42.81545 | 9.15270 | 16983 ft | 339 kts | 284° |
| 2026-05-06 12:23 | 42.82328 | 9.12227 | 17717 ft | 342 kts | 284° |
| 2026-05-06 12:23 | 42.83118 | 9.09152 | 18426 ft | 346 kts | 284° |
| 2026-05-06 12:23 | 42.83914 | 9.06045 | 19070 ft | 349 kts | 284° |
| 2026-05-06 12:23 | 42.84718 | 9.02911 | 19719 ft | 352 kts | 284° |
| 2026-05-06 12:24 | 42.85527 | 8.99753 | 20363 ft | 355 kts | 283° |
| 2026-05-06 12:24 | 42.86341 | 8.96566 | 21002 ft | 358 kts | 283° |
| 2026-05-06 12:24 | 42.87161 | 8.93351 | 21632 ft | 360 kts | 283° |
| 2026-05-06 12:24 | 42.87987 | 8.90112 | 22251 ft | 363 kts | 283° |
| 2026-05-06 12:25 | 42.88820 | 8.86844 | 22849 ft | 366 kts | 283° |
| 2026-05-06 12:25 | 42.89658 | 8.83550 | 23445 ft | 369 kts | 283° |
| 2026-05-06 12:25 | 42.90499 | 8.80234 | 23952 ft | 372 kts | 283° |
| 2026-05-06 12:25 | 42.91345 | 8.76890 | 24439 ft | 374 kts | 283° |
| 2026-05-06 12:26 | 42.92194 | 8.73529 | 24924 ft | 377 kts | 282° |
| 2026-05-06 12:26 | 42.93039 | 8.70180 | 25397 ft | 379 kts | 282° |
| 2026-05-06 12:26 | 42.93900 | 8.66765 | 25865 ft | 382 kts | 282° |
| 2026-05-06 12:26 | 42.94767 | 8.63333 | 26329 ft | 384 kts | 282° |
| 2026-05-06 12:27 | 42.95639 | 8.59872 | 26783 ft | 387 kts | 282° |
| 2026-05-06 12:27 | 42.96513 | 8.56385 | 27234 ft | 389 kts | 281° |
| 2026-05-06 12:27 | 42.97389 | 8.52881 | 27678 ft | 392 kts | 281° |
| 2026-05-06 12:27 | 42.98274 | 8.49334 | 28122 ft | 395 kts | 281° |
| 2026-05-06 12:28 | 42.99159 | 8.45778 | 28554 ft | 397 kts | 281° |
| 2026-05-06 12:28 | 43.00054 | 8.42192 | 28983 ft | 400 kts | 281° |
| 2026-05-06 12:28 | 43.00929 | 8.38578 | 29399 ft | 400 kts | 277° |
| 2026-05-06 12:28 | 43.01460 | 8.34880 | 29806 ft | 394 kts | 269° |
| 2026-05-06 12:29 | 43.01713 | 8.31164 | 29921 ft | 389 kts | 268° |
| 2026-05-06 12:29 | 43.01973 | 8.27574 | 29932 ft | 372 kts | 269° |
| 2026-05-06 12:29 | 43.02761 | 8.20760 | 29926 ft | 359 kts | 272° |
| 2026-05-06 12:30 | 43.03673 | 8.14077 | 29931 ft | 357 kts | 272° |
| 2026-05-06 12:30 | 43.04542 | 8.07444 | 29923 ft | 356 kts | 271° |
| 2026-05-06 12:31 | 43.05371 | 8.00783 | 29921 ft | 355 kts | 271° |
| 2026-05-06 12:31 | 43.06188 | 7.94124 | 29928 ft | 355 kts | 271° |
| 2026-05-06 12:32 | 43.07006 | 7.87469 | 29930 ft | 354 kts | 271° |
| 2026-05-06 12:32 | 43.07816 | 7.80832 | 29938 ft | 354 kts | 270° |
| 2026-05-06 12:33 | 43.08632 | 7.74192 | 29935 ft | 353 kts | 270° |
| 2026-05-06 12:33 | 43.09446 | 7.67568 | 29927 ft | 353 kts | 270° |
| 2026-05-06 12:34 | 43.10250 | 7.60961 | 29936 ft | 352 kts | 270° |
| 2026-05-06 12:34 | 43.11045 | 7.54406 | 29927 ft | 351 kts | 270° |
| 2026-05-06 12:35 | 43.11835 | 7.47813 | 29925 ft | 351 kts | 270° |
| 2026-05-06 12:35 | 43.12619 | 7.41226 | 29925 ft | 350 kts | 270° |
| 2026-05-06 12:36 | 43.13396 | 7.34649 | 29923 ft | 350 kts | 270° |
| 2026-05-06 12:36 | 43.14174 | 7.27916 | 29912 ft | 371 kts | 270° |
| 2026-05-06 12:37 | 43.14582 | 7.24357 | 29915 ft | 384 kts | 270° |
| 2026-05-06 12:37 | 43.15007 | 7.20727 | 29913 ft | 388 kts | 271° |
| 2026-05-06 12:37 | 43.15879 | 7.13417 | 29913 ft | 390 kts | 271° |
| 2026-05-06 12:38 | 43.16307 | 7.09817 | 29800 ft | 385 kts | 271° |
| 2026-05-06 12:38 | 43.16732 | 7.06236 | 29077 ft | 374 kts | 271° |
| 2026-05-06 12:38 | 43.17141 | 7.02789 | 28398 ft | 360 kts | 270° |
| 2026-05-06 12:38 | 43.17533 | 6.99466 | 27726 ft | 347 kts | 270° |
| 2026-05-06 12:39 | 43.17905 | 6.96259 | 27077 ft | 336 kts | 270° |
| 2026-05-06 12:39 | 43.18263 | 6.93126 | 26437 ft | 329 kts | 270° |
| 2026-05-06 12:39 | 43.18609 | 6.90048 | 25813 ft | 327 kts | 270° |
| 2026-05-06 12:39 | 43.18951 | 6.86977 | 25196 ft | 322 kts | 270° |
| 2026-05-06 12:40 | 43.19289 | 6.83963 | 24597 ft | 318 kts | 271° |
| 2026-05-06 12:40 | 43.19624 | 6.80983 | 24009 ft | 315 kts | 271° |
| 2026-05-06 12:40 | 43.19955 | 6.78040 | 23432 ft | 312 kts | 271° |
| 2026-05-06 12:40 | 43.20282 | 6.75115 | 22739 ft | 308 kts | 271° |
| 2026-05-06 12:41 | 43.20607 | 6.72225 | 22065 ft | 305 kts | 271° |
| 2026-05-06 12:41 | 43.20929 | 6.69354 | 21420 ft | 305 kts | 272° |
| 2026-05-06 12:41 | 43.21249 | 6.66485 | 20778 ft | 304 kts | 272° |
| 2026-05-06 12:41 | 43.21566 | 6.63625 | 20150 ft | 303 kts | 272° |
| 2026-05-06 12:42 | 43.21882 | 6.60762 | 19526 ft | 303 kts | 271° |
| 2026-05-06 12:42 | 43.21988 | 6.57895 | 18925 ft | 301 kts | 266° |
| 2026-05-06 12:42 | 43.22029 | 6.55024 | 18331 ft | 301 kts | 267° |
| 2026-05-06 12:42 | 43.22070 | 6.52154 | 17677 ft | 301 kts | 267° |
| 2026-05-06 12:43 | 43.22110 | 6.49276 | 17009 ft | 302 kts | 267° |
| 2026-05-06 12:43 | 43.22150 | 6.46392 | 16356 ft | 304 kts | 268° |
| 2026-05-06 12:43 | 43.22189 | 6.43499 | 15709 ft | 302 kts | 268° |
| 2026-05-06 12:43 | 43.22230 | 6.40660 | 15477 ft | 293 kts | 268° |
| 2026-05-06 12:44 | 43.22274 | 6.37908 | 15299 ft | 286 kts | 268° |
| 2026-05-06 12:44 | 43.22316 | 6.35202 | 14973 ft | 283 kts | 268° |
| 2026-05-06 12:44 | 43.22356 | 6.32508 | 14639 ft | 282 kts | 269° |
| 2026-05-06 12:44 | 43.22394 | 6.29817 | 14325 ft | 282 kts | 269° |
| 2026-05-06 12:45 | 43.22431 | 6.27164 | 13974 ft | 282 kts | 269° |
| 2026-05-06 12:45 | 43.22467 | 6.24474 | 13613 ft | 283 kts | 269° |
| 2026-05-06 12:45 | 43.22534 | 6.19093 | 12880 ft | 281 kts | 269° |
| 2026-05-06 12:46 | 43.22569 | 6.16418 | 12530 ft | 280 kts | 269° |
| 2026-05-06 12:46 | 43.22605 | 6.13756 | 12211 ft | 278 kts | 269° |
| 2026-05-06 12:46 | 43.22639 | 6.11110 | 11887 ft | 277 kts | 269° |
| 2026-05-06 12:46 | 43.22665 | 6.08477 | 11551 ft | 276 kts | 269° |
| 2026-05-06 12:47 | 43.22689 | 6.05851 | 11241 ft | 274 kts | 269° |
| 2026-05-06 12:47 | 43.22712 | 6.03243 | 10903 ft | 273 kts | 269° |
| 2026-05-06 12:47 | 43.22800 | 6.00648 | 10578 ft | 272 kts | 276° |
| 2026-05-06 12:47 | 43.23057 | 5.98080 | 10242 ft | 271 kts | 276° |
| 2026-05-06 12:48 | 43.23311 | 5.95524 | 9903 ft | 270 kts | 276° |
| 2026-05-06 12:48 | 43.23562 | 5.92984 | 9555 ft | 268 kts | 276° |
| 2026-05-06 12:48 | 43.23811 | 5.90459 | 9202 ft | 266 kts | 276° |
| 2026-05-06 12:48 | 43.24057 | 5.87945 | 8864 ft | 265 kts | 276° |
| 2026-05-06 12:49 | 43.24300 | 5.85447 | 8538 ft | 263 kts | 276° |
| 2026-05-06 12:49 | 43.24542 | 5.82970 | 8207 ft | 261 kts | 276° |
| 2026-05-06 12:49 | 43.24781 | 5.80504 | 7843 ft | 260 kts | 277° |
| 2026-05-06 12:49 | 43.25015 | 5.78081 | 7536 ft | 259 kts | 277° |
| 2026-05-06 12:50 | 43.25252 | 5.75639 | 7232 ft | 257 kts | 277° |
| 2026-05-06 12:50 | 43.25487 | 5.73213 | 6901 ft | 256 kts | 277° |
| 2026-05-06 12:50 | 43.25718 | 5.70800 | 6535 ft | 254 kts | 277° |
| 2026-05-06 12:50 | 43.25947 | 5.68405 | 6171 ft | 253 kts | 277° |
| 2026-05-06 12:51 | 43.26122 | 5.66618 | 5880 ft | 252 kts | 277° |
| 2026-05-06 12:51 | 43.26353 | 5.64242 | 5508 ft | 251 kts | 277° |
| 2026-05-06 12:51 | 43.26580 | 5.61869 | 5165 ft | 249 kts | 277° |
| 2026-05-06 12:52 | 43.26879 | 5.59542 | 4797 ft | 248 kts | 286° |
| 2026-05-06 12:52 | 43.27543 | 5.57364 | 4507 ft | 247 kts | 294° |
| 2026-05-06 12:52 | 43.28265 | 5.55233 | 4132 ft | 246 kts | 293° |
| 2026-05-06 12:52 | 43.28981 | 5.53099 | 3773 ft | 247 kts | 293° |
| 2026-05-06 12:53 | 43.29695 | 5.50961 | 3381 ft | 246 kts | 293° |
| 2026-05-06 12:53 | 43.30411 | 5.48819 | 3029 ft | 245 kts | 292° |
| 2026-05-06 12:53 | 43.31097 | 5.46769 | 2904 ft | 234 kts | 292° |
| 2026-05-06 12:53 | 43.31548 | 5.45422 | 2814 ft | 226 kts | 292° |
| 2026-05-06 12:54 | 43.32396 | 5.42895 | 2634 ft | 214 kts | 292° |
| 2026-05-06 12:54 | 43.33015 | 5.41048 | 2386 ft | 212 kts | 292° |
| 2026-05-06 12:54 | 43.33627 | 5.39212 | 2093 ft | 210 kts | 292° |
| 2026-05-06 12:54 | 43.34028 | 5.38013 | 2020 ft | 206 kts | 292° |
| 2026-05-06 12:55 | 43.34611 | 5.36266 | 2000 ft | 196 kts | 291° |
| 2026-05-06 12:55 | 43.35164 | 5.34614 | 2023 ft | 179 kts | 291° |
| 2026-05-06 12:55 | 43.35650 | 5.33174 | 1997 ft | 158 kts | 294° |
| 2026-05-06 12:55 | 43.36312 | 5.32024 | 2020 ft | 150 kts | 308° |
| 2026-05-06 12:56 | 43.37011 | 5.30993 | 2003 ft | 145 kts | 309° |
| 2026-05-06 12:56 | 43.37706 | 5.29990 | 2003 ft | 145 kts | 309° |
| 2026-05-06 12:56 | 43.38406 | 5.29002 | 1901 ft | 145 kts | 310° |
| 2026-05-06 12:56 | 43.39109 | 5.28017 | 1682 ft | 144 kts | 310° |
| 2026-05-06 12:57 | 43.39804 | 5.27029 | 1476 ft | 144 kts | 310° |
| 2026-05-06 12:57 | 43.40507 | 5.26059 | 1213 ft | 143 kts | 310° |
| 2026-05-06 12:57 | 43.41193 | 5.25078 | 945 ft | 142 kts | 307° |
| 2026-05-06 12:57 | 43.41858 | 5.24068 | 587 ft | 142 kts | 308° |
| 2026-05-06 12:58 | 43.42567 | 5.23114 | 251 ft | 143 kts | 310° |
| 2026-05-06 12:58 | 43.43201 | 5.22138 | 55 ft | 123 kts | 305° |
| 2026-05-06 12:58 | 43.43587 | 5.21593 | 41 ft | 36 kts | 319° |
| 2026-05-06 12:58 | 43.43747 | 5.21396 | 36 ft | 37 kts | 315° |
| 2026-05-06 12:59 | 43.43918 | 5.21165 | 28 ft | 26 kts | 326° |
| 2026-05-06 12:59 | 43.44038 | 5.21104 | 26 ft | 0 kts | 344° |
| 2026-05-06 13:00 | 43.44049 | 5.21099 | 25 ft | 4 kts | 344° |
| 2026-05-06 13:00 | 43.44082 | 5.21087 | 25 ft | 5 kts | 344° |
| 2026-05-06 13:00 | 43.44133 | 5.21077 | 23 ft | 9 kts | 8° |
| 2026-05-06 13:01 | 43.44185 | 5.21134 | 24 ft | 11 kts | 59° |
| 2026-05-06 13:01 | 43.44199 | 5.21222 | 24 ft | 8 kts | 143° |
| 2026-05-06 13:01 | 43.44141 | 5.21213 | 25 ft | 12 kts | 166° |
| 2026-05-06 13:01 | 43.44049 | 5.21303 | 28 ft | 18 kts | 134° |
| 2026-05-06 13:02 | 43.43967 | 5.21420 | 31 ft | 15 kts | 134° |
| 2026-05-06 13:02 | 43.43919 | 5.21526 | 33 ft | 12 kts | 102° |
| 2026-05-06 13:02 | 43.43953 | 5.21600 | 34 ft | 9 kts | 40° |
| 2026-05-06 13:02 | 43.43995 | 5.21654 | 33 ft | 8 kts | 44° |
| 2026-05-06 13:03 | 43.44031 | 5.21702 | 33 ft | 7 kts | 45° |
| 2026-05-06 13:03 | 43.44087 | 5.21777 | 33 ft | 14 kts | 44° |
| 2026-05-06 13:03 | 43.44099 | 5.21879 | 32 ft | 11 kts | 127° |
| 2026-05-06 13:03 | 43.44056 | 5.21942 | 36 ft | 8 kts | 133° |
| 2026-05-06 13:04 | 43.44027 | 5.21984 | 37 ft | 5 kts | 133° |
| 2026-05-06 13:04 | 43.43996 | 5.22028 | 39 ft | 8 kts | 135° |
| 2026-05-06 13:04 | 43.43965 | 5.22100 | 39 ft | 8 kts | 73° |
| 2026-05-06 13:04 | 43.43998 | 5.22141 | 40 ft | 4 kts | 32° |
| 2026-05-06 13:05 | 43.44011 | 5.22154 | 40 ft | 2 kts | 35° |
| 2026-05-06 13:05 | 43.44015 | 5.22158 | 40 ft | 0 kts | 34° |